Time;durP1;ratioP1;P1;durP2;ratioP2;P2;SDS_P1;SDS_P2;PMS_P1;PMS_P2;Temp;Humidity;BMP_temperature;BMP_pressure;BME280_temperature;BME280_humidity;BME280_pressure;Samples;Min_cycle;Max_cycle;Signal;HPM_P1;HPM_P2
2023/01/20 00:01:42;;;;;;;1.10;0.60;;;0.90;99.90;;;;;;5016052;28;20116;-68
2023/01/20 00:04:08;;;;;;;1.45;0.60;;;1.50;99.90;;;;;;5015251;28;20057;-68
2023/01/20 00:06:34;;;;;;;1.27;0.60;;;1.50;99.90;;;;;;5015070;28;20053;-68
2023/01/20 00:09:01;;;;;;;2.58;1.50;;;1.50;99.90;;;;;;5014779;28;20515;-68
2023/01/20 00:11:28;;;;;;;4.53;1.83;;;0.80;99.90;;;;;;5015853;28;20073;-68
2023/01/20 00:13:55;;;;;;;3.95;2.03;;;0.80;99.90;;;;;;5015605;28;20136;-67
2023/01/20 00:16:22;;;;;;;1.95;1.15;;;2.00;99.90;;;;;;5013997;28;20057;-68
2023/01/20 00:18:47;;;;;;;2.08;0.70;;;1.80;99.90;;;;;;5013756;28;20411;-68
2023/01/20 00:21:15;;;;;;;2.53;0.93;;;1.50;99.90;;;;;;5015141;28;20042;-68
2023/01/20 00:23:41;;;;;;;1.20;0.70;;;0.60;99.90;;;;;;5013897;28;20076;-68
2023/01/20 00:26:15;;;;;;;1.42;0.73;;;1.70;99.90;;;;;;5015560;28;20391;-68
2023/01/20 00:28:41;;;;;;;3.45;0.70;;;1.30;99.90;;;;;;5014772;28;20054;-67
2023/01/20 00:31:19;;;;;;;1.52;0.52;;;1.30;99.90;;;;;;5015212;28;20430;-68
2023/01/20 00:33:46;;;;;;;2.15;0.93;;;0.70;99.90;;;;;;5014980;28;20425;-68
2023/01/20 00:36:14;;;;;;;1.10;0.70;;;1.40;99.90;;;;;;5014676;28;20394;-68
2023/01/20 00:38:39;;;;;;;0.90;0.60;;;0.90;99.90;;;;;;5013213;28;20495;-68
2023/01/20 00:41:06;;;;;;;1.08;0.63;;;0.70;99.90;;;;;;5013406;28;20096;-68
2023/01/20 00:43:31;;;;;;;1.15;0.55;;;1.60;99.90;;;;;;5015335;28;20486;-68
2023/01/20 00:45:57;;;;;;;1.52;0.40;;;1.60;99.90;;;;;;5014511;28;20111;-68
2023/01/20 00:48:23;;;;;;;1.92;0.50;;;0.80;99.90;;;;;;5014617;28;20041;-68
2023/01/20 00:50:49;;;;;;;0.73;0.50;;;1.20;99.90;;;;;;5013345;28;20490;-68
2023/01/20 00:53:15;;;;;;;1.70;0.60;;;0.90;99.90;;;;;;5014472;28;20081;-68
2023/01/20 00:55:41;;;;;;;1.90;0.52;;;0.80;99.90;;;;;;5014348;28;20120;-68
2023/01/20 00:58:06;;;;;;;0.98;0.57;;;1.30;99.90;;;;;;5014803;28;20072;-68
2023/01/20 01:00:32;;;;;;;1.15;0.65;;;0.60;99.90;;;;;;5014201;28;20053;-68
2023/01/20 01:02:58;;;;;;;2.20;0.80;;;1.10;99.90;;;;;;5014159;28;20053;-68
2023/01/20 01:05:23;;;;;;;1.75;0.70;;;2.00;99.90;;;;;;5014044;28;20095;-68
2023/01/20 01:07:49;;;;;;;0.70;0.52;;;1.50;99.90;;;;;;5012984;28;20053;-68
2023/01/20 01:10:15;;;;;;;1.48;0.73;;;1.20;99.90;;;;;;5013937;28;20137;-68
2023/01/20 01:12:41;;;;;;;0.90;0.60;;;0.90;99.90;;;;;;5013738;28;20389;-68
2023/01/20 01:15:07;;;;;;;1.75;1.10;;;0.80;99.90;;;;;;5014563;28;20053;-68
2023/01/20 01:17:33;;;;;;;1.90;1.00;;;0.40;99.90;;;;;;5014786;28;20128;-68
2023/01/20 01:19:58;;;;;;;2.78;1.15;;;1.70;99.90;;;;;;5013426;28;20161;-68
2023/01/20 01:22:24;;;;;;;3.85;1.13;;;0.50;99.90;;;;;;5014504;28;20046;-68
2023/01/20 01:24:50;;;;;;;2.55;1.20;;;1.00;99.90;;;;;;5013843;28;20129;-68
2023/01/20 01:27:15;;;;;;;2.17;1.00;;;1.30;99.90;;;;;;5012727;28;20297;-68
2023/01/20 01:29:42;;;;;;;2.97;1.40;;;1.00;99.90;;;;;;5013659;28;20050;-68
2023/01/20 01:32:07;;;;;;;2.83;1.30;;;1.00;99.90;;;;;;5013858;28;20085;-68
2023/01/20 01:34:33;;;;;;;3.10;1.50;;;1.10;99.90;;;;;;5012569;28;20127;-68
2023/01/20 01:36:59;;;;;;;3.15;1.70;;;1.70;99.90;;;;;;5013828;28;20049;-68
2023/01/20 01:39:26;;;;;;;3.22;1.85;;;0.80;99.90;;;;;;5013664;28;20104;-68
2023/01/20 01:41:51;;;;;;;3.35;2.25;;;0.70;99.90;;;;;;5012836;28;20129;-68
2023/01/20 01:44:17;;;;;;;5.55;2.67;;;0.80;99.90;;;;;;5012717;28;20128;-68
2023/01/20 01:46:43;;;;;;;3.13;1.90;;;0.70;99.90;;;;;;5013990;28;20048;-68
2023/01/20 01:49:18;;;;;;;3.08;1.83;;;0.60;99.90;;;;;;5013974;28;20560;-67
2023/01/20 01:51:53;;;;;;;3.00;1.95;;;0.70;99.90;;;;;;5012600;28;20132;-68
2023/01/20 01:54:26;;;;;;;4.40;2.20;;;0.70;99.90;;;;;;5013944;28;20073;-68
2023/01/20 01:56:52;;;;;;;3.63;2.37;;;1.50;99.90;;;;;;5013720;28;20428;-68
2023/01/20 01:59:19;;;;;;;4.88;2.10;;;1.30;99.90;;;;;;5013603;28;20281;-68
2023/01/20 02:01:48;;;;;;;5.15;2.55;;;0.90;99.90;;;;;;5013603;28;20060;-70
2023/01/20 02:04:16;;;;;;;4.57;2.30;;;1.10;99.90;;;;;;5013952;28;20081;-68
2023/01/20 02:06:48;;;;;;;4.32;2.92;;;0.90;99.90;;;;;;5013999;28;20085;-67
2023/01/20 02:09:14;;;;;;;6.43;3.05;;;1.00;99.90;;;;;;5014366;28;20045;-67
2023/01/20 02:11:51;;;;;;;5.88;2.95;;;0.90;99.90;;;;;;5013740;28;20400;-67
2023/01/20 02:14:20;;;;;;;5.45;3.15;;;1.00;99.90;;;;;;5013481;28;20121;-68
2023/01/20 02:16:46;;;;;;;5.45;3.65;;;1.70;99.90;;;;;;5013375;28;20052;-68
2023/01/20 02:19:36;;;;;;;5.22;3.15;;;1.50;99.90;;;;;;5013395;28;20046;-68
2023/01/20 02:22:17;;;;;;;6.60;3.60;;;0.80;99.90;;;;;;5012797;28;20164;-68
2023/01/20 02:25:07;;;;;;;6.32;3.80;;;0.80;99.90;;;;;;5013301;28;20046;-68
2023/01/20 02:28:14;;;;;;;6.25;3.25;;;1.00;99.90;;;;;;5013375;28;20042;-68
2023/01/20 02:31:14;;;;;;;8.10;4.38;;;0.80;99.90;;;;;;5013283;28;20054;-68
2023/01/20 02:33:52;;;;;;;8.88;3.90;;;0.80;99.90;;;;;;5013282;28;20045;-67
2023/01/20 02:36:39;;;;;;;5.88;3.63;;;1.20;99.90;;;;;;5012038;28;20038;-68
2023/01/20 02:39:29;;;;;;;6.35;3.67;;;0.80;99.90;;;;;;5013775;28;20045;-68
2023/01/20 02:42:23;;;;;;;6.47;4.30;;;0.60;99.90;;;;;;5013216;28;20053;-68
2023/01/20 02:45:21;;;;;;;9.45;4.60;;;0.70;99.90;;;;;;5007433;28;20097;-68
2023/01/20 02:48:03;;;;;;;8.85;4.57;;;0.70;99.90;;;;;;5013032;28;20103;-68
2023/01/20 02:50:36;;;;;;;8.52;4.40;;;0.60;99.90;;;;;;5014286;28;20046;-68
2023/01/20 02:53:03;;;;;;;9.90;5.07;;;1.00;99.90;;;;;;5017162;28;20054;-68
2023/01/20 02:55:43;;;;;;;8.40;4.80;;;1.60;99.90;;;;;;5016471;28;20042;-68
2023/01/20 02:58:22;;;;;;;14.68;6.22;;;1.30;99.90;;;;;;5017052;28;20125;-68
2023/01/20 03:00:54;;;;;;;10.25;4.63;;;1.30;99.90;;;;;;5016159;28;20488;-68
2023/01/20 03:03:27;;;;;;;9.13;4.95;;;1.40;99.90;;;;;;5016488;28;20061;-68
2023/01/20 03:05:56;;;;;;;11.80;5.20;;;1.10;99.90;;;;;;5016754;28;20093;-68
2023/01/20 03:08:27;;;;;;;8.93;5.65;;;2.00;99.90;;;;;;5015075;28;20082;-68
2023/01/20 03:10:55;;;;;;;9.52;4.72;;;0.90;99.90;;;;;;5016284;28;20535;-68
2023/01/20 03:13:29;;;;;;;9.55;5.00;;;1.80;99.90;;;;;;5015986;28;20503;-68
2023/01/20 03:16:07;;;;;;;8.95;5.00;;;0.90;99.90;;;;;;5016926;28;20045;-68
2023/01/20 03:18:34;;;;;;;8.52;4.45;;;0.80;99.90;;;;;;5016673;28;20054;-68
2023/01/20 03:21:02;;;;;;;9.40;5.07;;;1.20;99.90;;;;;;5016602;28;20116;-67
2023/01/20 03:23:32;;;;;;;9.02;4.93;;;1.00;99.90;;;;;;5016022;28;20179;-68
2023/01/20 03:25:58;;;;;;;9.75;4.88;;;1.10;99.90;;;;;;5016133;28;20042;-68
2023/01/20 03:28:24;;;;;;;12.60;4.40;;;3.20;99.90;;;;;;5015971;28;20084;-68
2023/01/20 03:30:54;;;;;;;9.95;5.05;;;1.10;99.90;;;;;;5015810;28;20046;-68
2023/01/20 03:33:20;;;;;;;9.82;4.75;;;1.00;99.90;;;;;;5015844;28;20053;-68
2023/01/20 03:35:47;;;;;;;8.93;4.72;;;1.60;99.90;;;;;;5016252;28;20491;-68
2023/01/20 03:38:12;;;;;;;10.15;4.90;;;2.00;99.90;;;;;;5016255;28;20054;-68
2023/01/20 03:41:05;;;;;;;7.97;4.80;;;1.20;99.90;;;;;;5016224;28;20042;-67
2023/01/20 03:43:51;;;;;;;8.05;4.18;;;1.80;99.90;;;;;;5014993;28;20267;-68
2023/01/20 03:46:43;;;;;;;8.27;4.10;;;1.20;99.90;;;;;;5015507;28;20049;-68
2023/01/20 03:49:16;;;;;;;8.55;4.65;;;1.10;99.90;;;;;;5016096;28;20057;-68
2023/01/20 03:51:54;;;;;;;8.02;4.45;;;1.60;99.90;;;;;;5015444;28;20053;-68
2023/01/20 03:54:27;;;;;;;7.93;4.30;;;0.90;99.90;;;;;;5015531;28;20053;-68
2023/01/20 03:56:56;;;;;;;7.47;4.13;;;1.00;99.90;;;;;;5016212;28;20087;-68
2023/01/20 03:59:23;;;;;;;7.88;5.00;;;1.60;99.90;;;;;;5015140;28;20049;-68
2023/01/20 04:01:50;;;;;;;8.40;4.72;;;1.00;99.90;;;;;;5013995;28;20088;-68
2023/01/20 04:04:18;;;;;;;9.00;4.75;;;1.70;99.90;;;;;;5015232;28;20057;-68
2023/01/20 04:06:45;;;;;;;7.90;4.43;;;1.30;99.90;;;;;;5015352;28;20507;-68
2023/01/20 04:09:22;;;;;;;9.27;5.57;;;2.20;99.90;;;;;;5014148;28;20089;-68
2023/01/20 04:11:48;;;;;;;9.25;5.32;;;1.10;99.90;;;;;;5015213;28;20053;-68
2023/01/20 04:14:13;;;;;;;9.23;5.82;;;1.00;99.90;;;;;;5014821;28;20061;-67
2023/01/20 04:16:39;;;;;;;10.18;5.47;;;1.30;99.90;;;;;;5014997;28;20490;-67
2023/01/20 04:19:05;;;;;;;8.65;5.15;;;1.80;99.90;;;;;;5014989;28;20046;-68
2023/01/20 04:21:43;;;;;;;13.13;6.47;;;0.90;99.90;;;;;;5013485;28;20042;-68
2023/01/20 04:24:26;;;;;;;11.57;6.45;;;0.80;99.90;;;;;;5015167;28;20104;-68
2023/01/20 04:26:52;;;;;;;;;;;0.90;99.90;;;;;;5015259;28;20189;-68
2023/01/20 04:29:18;;;;;;;10.25;6.25;;;2.00;99.90;;;;;;5014744;28;19968;-68
2023/01/20 04:31:43;;;;;;;11.50;6.18;;;1.20;99.90;;;;;;5015032;28;20045;-68
2023/01/20 04:34:12;;;;;;;9.98;6.32;;;1.10;99.90;;;;;;5015248;28;20042;-68
2023/01/20 04:36:38;;;;;;;13.05;6.32;;;1.10;99.90;;;;;;5014296;28;20046;-68
2023/01/20 04:39:03;;;;;;;12.00;6.47;;;1.20;99.90;;;;;;5014326;28;20065;-68
2023/01/20 04:41:29;;;;;;;13.75;7.20;;;1.50;99.90;;;;;;5014664;28;20049;-68
2023/01/20 04:43:54;;;;;;;12.68;6.82;;;2.00;99.90;;;;;;4997133;28;20054;-68
2023/01/20 04:46:20;;;;;;;12.20;6.80;;;1.40;99.90;;;;;;5015243;28;20050;-68
2023/01/20 04:48:46;;;;;;;14.27;7.35;;;1.80;99.90;;;;;;5015009;28;20138;-68
2023/01/20 04:51:12;;;;;;;14.13;7.90;;;1.00;99.90;;;;;;5014412;28;20373;-68
2023/01/20 04:53:38;;;;;;;13.77;7.05;;;1.70;99.90;;;;;;5014456;28;20125;-67
2023/01/20 04:56:08;;;;;;;16.98;7.80;;;1.70;99.90;;;;;;5014387;28;20137;-68
2023/01/20 04:58:34;;;;;;;13.82;6.82;;;1.00;99.90;;;;;;5014362;28;20148;-68
2023/01/20 05:01:01;;;;;;;12.60;6.82;;;0.90;99.90;;;;;;5014776;28;20070;-68
2023/01/20 05:03:27;;;;;;;13.07;6.70;;;2.00;99.90;;;;;;5014254;28;20454;-68
2023/01/20 05:05:53;;;;;;;13.73;6.85;;;1.10;99.90;;;;;;5014041;28;20128;-68
2023/01/20 05:08:19;;;;;;;14.00;6.82;;;1.60;99.90;;;;;;5014134;28;20050;-67
2023/01/20 05:10:45;;;;;;;13.45;7.55;;;2.30;99.90;;;;;;5014109;28;20181;-68
2023/01/20 05:13:11;;;;;;;13.88;7.05;;;1.60;99.90;;;;;;5011995;28;20062;-68
2023/01/20 05:15:37;;;;;;;14.95;6.60;;;0.80;99.90;;;;;;5012817;28;20495;-68
2023/01/20 05:18:03;;;;;;;13.45;7.18;;;1.20;99.90;;;;;;5014289;28;20038;-68
2023/01/20 05:20:29;;;;;;;14.50;7.00;;;0.80;99.90;;;;;;5014809;28;20057;-68
2023/01/20 05:22:54;;;;;;;14.27;6.88;;;1.10;99.90;;;;;;5014214;28;20077;-68
2023/01/20 05:25:20;;;;;;;13.02;6.65;;;1.10;99.90;;;;;;5012696;28;20498;-68
2023/01/20 05:27:46;;;;;;;11.50;6.32;;;1.30;99.90;;;;;;5013535;28;20053;-68
2023/01/20 05:30:12;;;;;;;14.70;6.47;;;1.40;99.90;;;;;;5013869;28;20045;-68
2023/01/20 05:32:37;;;;;;;16.98;7.07;;;0.90;99.90;;;;;;5014642;28;20049;-68
2023/01/20 05:35:04;;;;;;;12.75;7.03;;;1.00;99.90;;;;;;5013710;28;20502;-68
2023/01/20 05:37:29;;;;;;;13.60;6.32;;;1.00;99.90;;;;;;5013834;28;20061;-68
2023/01/20 05:39:55;;;;;;;10.77;5.93;;;1.00;99.90;;;;;;5013984;28;20046;-68
2023/01/20 05:42:21;;;;;;;13.07;6.07;;;1.10;99.90;;;;;;5014304;28;20053;-68
2023/01/20 05:44:47;;;;;;;13.88;6.53;;;0.90;99.90;;;;;;5013639;28;20435;-68
2023/01/20 05:47:13;;;;;;;10.85;5.72;;;1.50;99.90;;;;;;5013725;28;20108;-68
2023/01/20 05:49:38;;;;;;;11.15;5.57;;;1.40;99.90;;;;;;5013456;28;20050;-68
2023/01/20 05:52:04;;;;;;;11.20;5.93;;;1.10;99.90;;;;;;5013928;28;20138;-68
2023/01/20 05:54:29;;;;;;;14.10;6.93;;;0.80;99.90;;;;;;5014148;28;20038;-68
2023/01/20 05:56:55;;;;;;;11.18;6.00;;;1.20;99.90;;;;;;5013621;28;20046;-67
2023/01/20 05:59:22;;;;;;;12.38;5.18;;;1.50;99.90;;;;;;5014159;28;20470;-68
2023/01/20 06:01:48;;;;;;;11.70;6.28;;;1.10;99.90;;;;;;5013592;28;20042;-68
2023/01/20 06:04:13;;;;;;;11.63;5.80;;;1.70;99.90;;;;;;5013033;28;20046;-68
2023/01/20 06:06:39;;;;;;;11.13;6.20;;;1.50;99.90;;;;;;5012467;28;20046;-68
2023/01/20 06:09:05;;;;;;;9.60;5.20;;;1.80;99.90;;;;;;5012367;28;20096;-68
2023/01/20 06:11:31;;;;;;;10.50;5.53;;;2.00;99.90;;;;;;5013481;28;20053;-68
2023/01/20 06:13:57;;;;;;;11.77;5.82;;;1.10;99.90;;;;;;5013120;28;20076;-68
2023/01/20 06:16:23;;;;;;;10.70;5.75;;;1.20;99.90;;;;;;5013457;28;20499;-68
2023/01/20 06:18:48;;;;;;;8.85;4.72;;;3.20;99.90;;;;;;5013388;28;20399;-68
2023/01/20 06:21:14;;;;;;;9.10;5.10;;;1.00;99.90;;;;;;5013670;28;20045;-68
2023/01/20 06:23:40;;;;;;;10.13;5.47;;;0.90;99.90;;;;;;5013356;28;20125;-68
2023/01/20 06:26:10;;;;;;;11.20;5.65;;;2.10;99.90;;;;;;5017061;28;20085;-68
2023/01/20 06:28:36;;;;;;;10.93;5.30;;;1.10;99.90;;;;;;5017035;28;20042;-68
2023/01/20 06:31:06;;;;;;;10.88;5.43;;;0.90;99.90;;;;;;5017034;28;20071;-68
2023/01/20 06:33:33;;;;;;;12.90;4.90;;;0.80;99.90;;;;;;5017013;28;20041;-68
2023/01/20 06:35:59;;;;;;;9.55;4.95;;;1.30;99.90;;;;;;5016902;28;20045;-68
2023/01/20 06:38:27;;;;;;;11.38;5.00;;;0.70;99.90;;;;;;5017131;28;20091;-68
2023/01/20 06:41:00;;;;;;;9.18;4.78;;;1.00;99.90;;;;;;5015531;28;20133;-68
2023/01/20 06:43:31;;;;;;;12.80;5.60;;;1.00;99.90;;;;;;5015938;28;20511;-68
2023/01/20 06:46:02;;;;;;;9.65;5.30;;;0.70;99.90;;;;;;5016993;28;20046;-68
2023/01/20 06:48:28;;;;;;;10.15;5.85;;;1.00;99.90;;;;;;5016277;28;20045;-68
2023/01/20 06:51:03;;;;;;;9.25;5.13;;;1.50;99.90;;;;;;5016906;28;20041;-69
2023/01/20 06:53:29;;;;;;;10.25;5.22;;;1.00;99.90;;;;;;5016471;28;20049;-68
2023/01/20 06:55:56;;;;;;;12.73;5.28;;;1.70;99.90;;;;;;5016592;28;20100;-68
2023/01/20 06:58:26;;;;;;;13.35;5.85;;;1.10;99.90;;;;;;5016485;28;20054;-68
2023/01/20 07:00:53;;;;;;;9.57;5.05;;;1.80;99.90;;;;;;5016466;28;20492;-68
2023/01/20 07:03:19;;;;;;;10.85;5.82;;;1.00;99.90;;;;;;5016450;28;20464;-68
2023/01/20 07:06:13;;;;;;;11.80;5.70;;;1.10;99.90;;;;;;5014704;28;20077;-68
2023/01/20 07:08:39;;;;;;;;;;;1.00;99.90;;;;;;5017329;28;20042;-67
2023/01/20 07:11:04;;;;;;;10.15;5.25;;;1.50;99.90;;;;;;5016804;28;19944;-69
2023/01/20 07:13:30;;;;;;;12.02;6.25;;;2.10;99.90;;;;;;5016398;28;20054;-67
2023/01/20 07:15:56;;;;;;;10.23;5.78;;;2.50;99.90;;;;;;5015951;28;20080;-67
2023/01/20 07:18:21;;;;;;;12.70;6.32;;;1.70;99.90;;;;;;4998831;28;20046;-67
2023/01/20 07:20:52;;;;;;;11.07;5.82;;;1.20;99.90;;;;;;5016098;28;20092;-67
2023/01/20 07:23:18;;;;;;;11.45;5.97;;;1.00;99.90;;;;;;5016617;28;20046;-68
2023/01/20 07:25:44;;;;;;;11.00;5.78;;;1.90;99.90;;;;;;5016721;28;20037;-68
2023/01/20 07:28:09;;;;;;;12.57;5.80;;;1.20;99.90;;;;;;5016900;28;20095;-68
2023/01/20 07:30:35;;;;;;;13.60;7.05;;;2.00;99.90;;;;;;5014723;28;20498;-68
2023/01/20 07:33:01;;;;;;;12.95;6.95;;;2.00;99.90;;;;;;5015820;28;20094;-68
2023/01/20 07:35:26;;;;;;;11.15;6.00;;;1.50;99.90;;;;;;5015078;28;20053;-68
2023/01/20 07:37:52;;;;;;;11.80;6.22;;;1.00;99.90;;;;;;5015975;28;20080;-68
2023/01/20 07:40:18;;;;;;;13.82;7.82;;;2.20;99.90;;;;;;5015701;28;20373;-68
2023/01/20 07:42:44;;;;;;;14.82;6.50;;;1.10;99.90;;;;;;5015616;28;20088;-68
2023/01/20 07:45:09;;;;;;;11.93;6.63;;;1.00;99.90;;;;;;5015539;28;20053;-68
2023/01/20 07:47:35;;;;;;;14.57;7.97;;;1.10;99.90;;;;;;5015572;28;20054;-68
2023/01/20 07:50:01;;;;;;;14.25;7.03;;;1.30;99.90;;;;;;5015777;28;20045;-68
2023/01/20 07:52:26;;;;;;;12.20;6.80;;;1.10;99.90;;;;;;5015699;28;20101;-68
2023/01/20 07:54:52;;;;;;;13.88;6.70;;;1.60;99.90;;;;;;5015400;28;20048;-68
2023/01/20 07:57:18;;;;;;;16.67;7.35;;;1.10;99.90;;;;;;5015888;28;20120;-68
2023/01/20 07:59:44;;;;;;;16.20;8.00;;;1.40;99.90;;;;;;5014139;28;20060;-68
2023/01/20 08:02:09;;;;;;;18.90;7.85;;;1.10;99.90;;;;;;5015394;28;20073;-68
2023/01/20 08:04:35;;;;;;;13.52;7.03;;;1.30;99.90;;;;;;5014323;28;20096;-68
2023/01/20 08:07:01;;;;;;;14.20;7.47;;;1.30;99.90;;;;;;5015664;28;20129;-68
2023/01/20 08:09:27;;;;;;;16.90;7.28;;;1.00;99.90;;;;;;5015153;28;20137;-68
2023/01/20 08:11:52;;;;;;;15.80;7.35;;;1.10;99.90;;;;;;5013776;28;20045;-67
2023/01/20 08:14:18;;;;;;;14.90;7.53;;;1.10;99.90;;;;;;5015826;28;20061;-69
2023/01/20 08:16:44;;;;;;;14.73;8.00;;;1.60;99.90;;;;;;5013875;28;20050;-68
2023/01/20 08:19:09;;;;;;;16.33;7.65;;;2.00;99.90;;;;;;5014979;28;20052;-68
2023/01/20 08:21:35;;;;;;;17.98;7.70;;;1.50;99.90;;;;;;5014110;28;20065;-67
2023/01/20 08:24:04;;;;;;;15.85;8.57;;;1.20;99.90;;;;;;5013908;28;20042;-68
2023/01/20 08:26:31;;;;;;;18.20;8.40;;;1.20;99.90;;;;;;5014429;28;20483;-68
2023/01/20 08:29:08;;;;;;;18.10;8.50;;;3.00;99.90;;;;;;5014784;28;20503;-68
2023/01/20 08:31:34;;;;;;;17.77;9.43;;;2.00;99.90;;;;;;5015406;28;20427;-73
2023/01/20 08:34:00;;;;;;;16.80;8.40;;;1.50;99.90;;;;;;5014855;28;20041;-68
2023/01/20 08:36:32;;;;;;;19.75;9.02;;;1.10;99.90;;;;;;5017789;28;20104;-67
2023/01/20 08:39:01;;;;;;;19.85;9.35;;;1.30;99.90;;;;;;5014807;28;20056;-67
2023/01/20 08:41:29;;;;;;;18.15;8.48;;;2.30;99.90;;;;;;5014589;28;20050;-68
2023/01/20 08:43:57;;;;;;;17.02;8.82;;;1.70;99.90;;;;;;5015480;28;20353;-68
2023/01/20 08:46:23;;;;;;;18.23;8.80;;;1.60;99.90;;;;;;5016437;28;20395;-66
2023/01/20 08:48:50;;;;;;;21.10;9.25;;;1.20;99.90;;;;;;5013389;28;20042;-67
2023/01/20 08:51:23;;;;;;;21.83;9.65;;;1.80;99.90;;;;;;5014416;28;20053;-68
2023/01/20 08:53:49;;;;;;;17.15;8.77;;;1.30;99.90;;;;;;5014588;28;20046;-68
2023/01/20 08:56:16;;;;;;;18.75;8.73;;;1.30;99.90;;;;;;5013285;28;20083;-67
2023/01/20 08:58:43;;;;;;;18.73;9.13;;;1.40;99.90;;;;;;5014182;28;20057;-68
2023/01/20 09:01:22;;;;;;;19.20;9.35;;;1.70;99.90;;;;;;4997189;28;20046;-68
2023/01/20 09:03:48;;;;;;;22.77;10.00;;;2.00;99.90;;;;;;5015254;28;20383;-68
2023/01/20 09:06:14;;;;;;;19.45;9.18;;;1.50;99.90;;;;;;5014214;28;20053;-67
2023/01/20 09:08:40;;;;;;;20.30;10.15;;;1.60;99.90;;;;;;5014314;28;20101;-68
2023/01/20 09:11:12;;;;;;;20.25;9.70;;;2.00;99.90;;;;;;5014322;28;20050;-68
2023/01/20 09:13:38;;;;;;;20.75;10.93;;;1.70;99.90;;;;;;5014197;28;20061;-68
2023/01/20 09:16:04;;;;;;;21.88;10.70;;;2.80;99.90;;;;;;5013808;28;20045;-68
2023/01/20 09:18:31;;;;;;;19.05;9.07;;;1.50;99.90;;;;;;5013118;28;20081;-68
2023/01/20 09:21:06;;;;;;;20.27;9.65;;;1.60;99.90;;;;;;4997114;28;20052;-69
2023/01/20 09:23:34;;;;;;;21.52;10.07;;;2.00;99.90;;;;;;5014325;28;20096;-68
2023/01/20 09:26:01;;;;;;;20.85;10.00;;;1.60;99.90;;;;;;5013986;28;20081;-68
2023/01/20 09:28:27;;;;;;;21.15;9.07;;;3.00;99.90;;;;;;5013584;28;20136;-68
2023/01/20 09:31:02;;;;;;;20.77;9.40;;;1.50;99.90;;;;;;5012780;28;20054;-68
2023/01/20 09:33:29;;;;;;;20.92;9.52;;;1.50;99.90;;;;;;4997501;28;20057;-69
2023/01/20 09:35:55;;;;;;;19.48;10.73;;;1.60;99.90;;;;;;5012697;28;20124;-70
2023/01/20 09:44:33;;;;;;;21.85;9.55;;;1.60;99.90;;;;;;5013929;28;20053;-69
2023/01/20 09:47:29;;;;;;;21.67;10.15;;;1.70;99.90;;;;;;5013803;28;20046;-69
2023/01/20 09:53:47;;;;;;;15.65;7.10;;;1.80;99.90;;;;;;5013499;28;20054;-68
2023/01/20 09:56:16;;;;;;;20.05;7.72;;;1.70;99.90;;;;;;5003828;28;20482;-67
2023/01/20 09:58:57;;;;;;;17.88;7.07;;;1.80;99.90;;;;;;5012467;28;20120;-68
2023/01/20 10:01:44;;;;;;;19.73;7.63;;;1.80;99.90;;;;;;5018294;28;20109;-68
2023/01/20 10:04:31;;;;;;;30.30;11.15;;;1.80;99.90;;;;;;5018439;28;20133;-68
2023/01/20 10:07:13;;;;;;;16.48;7.13;;;1.80;99.90;;;;;;5018134;28;20058;-68
2023/01/20 10:09:47;;;;;;;17.88;7.68;;;1.90;99.90;;;;;;5018371;28;20206;-68
2023/01/20 10:12:30;;;;;;;17.23;7.18;;;1.90;99.90;;;;;;5017279;28;20042;-68
2023/01/20 10:15:13;;;;;;;16.23;7.10;;;1.70;99.90;;;;;;5017415;28;20135;-68
2023/01/20 10:17:49;;;;;;;14.20;6.32;;;1.80;99.90;;;;;;5017426;28;20050;-68
2023/01/20 10:20:34;;;;;;;14.63;6.88;;;1.90;99.90;;;;;;5017509;28;20046;-68
2023/01/20 10:23:23;;;;;;;16.20;6.53;;;2.20;99.90;;;;;;5017392;28;20128;-68
2023/01/20 10:26:03;;;;;;;16.10;6.65;;;1.80;99.90;;;;;;5017274;28;20053;-67
2023/01/20 10:28:35;;;;;;;14.50;6.85;;;1.80;99.90;;;;;;5016569;28;20493;-68
2023/01/20 10:31:03;;;;;;;14.65;7.00;;;2.80;99.90;;;;;;5017836;28;20049;-68
2023/01/20 10:33:37;;;;;;;11.77;4.57;;;2.00;99.90;;;;;;5017856;28;20041;-68
2023/01/20 10:36:03;;;;;;;15.23;6.55;;;2.30;99.90;;;;;;5017017;28;20077;-68
2023/01/20 10:38:32;;;;;;;16.95;6.78;;;1.90;99.90;;;;;;5016332;28;20053;-68
2023/01/20 10:41:17;;;;;;;14.13;5.72;;;2.30;99.90;;;;;;5016981;28;20053;-68
2023/01/20 10:43:43;;;;;;;16.45;6.25;;;2.20;99.90;;;;;;5016307;28;20121;-68
2023/01/20 10:46:15;;;;;;;12.02;5.88;;;2.40;99.90;;;;;;5016780;28;20053;-69
2023/01/20 10:49:19;;;;;;;18.48;7.05;;;2.30;99.90;;;;;;5016811;28;20045;-68
2023/01/20 10:52:03;;;;;;;15.63;6.10;;;1.80;99.90;;;;;;4986304;28;20104;-69
2023/01/20 10:54:44;;;;;;;14.23;5.93;;;2.60;99.90;;;;;;5017310;28;20053;-69
2023/01/20 10:57:13;;;;;;;19.98;8.52;;;2.10;99.90;;;;;;5016316;28;20054;-67
2023/01/20 10:59:49;;;;;;;15.20;6.28;;;2.60;99.90;;;;;;5016566;28;20053;-69
2023/01/20 11:02:33;;;;;;;13.77;5.32;;;2.00;99.90;;;;;;5017405;28;20053;-68
2023/01/20 11:05:19;;;;;;;13.43;6.65;;;1.90;99.90;;;;;;5014855;28;20057;-69
2023/01/20 11:07:46;;;;;;;14.25;6.35;;;2.10;99.90;;;;;;5016597;28;20116;-68
2023/01/20 11:10:18;;;;;;;12.77;5.80;;;2.40;99.90;;;;;;5015931;28;20107;-68
2023/01/20 11:12:49;;;;;;;14.32;6.50;;;1.90;99.90;;;;;;5015619;28;20061;-67
2023/01/20 11:15:22;;;;;;;14.55;6.30;;;2.20;99.90;;;;;;5016050;28;20049;-68
2023/01/20 11:18:13;;;;;;;12.43;5.78;;;1.90;99.90;;;;;;5016868;28;20446;-68
2023/01/20 11:21:11;;;;;;;15.35;7.25;;;2.10;99.90;;;;;;5004495;28;20062;-68
2023/01/20 11:23:41;;;;;;;13.20;5.97;;;1.90;99.90;;;;;;5015260;28;20392;-69
2023/01/20 11:26:17;;;;;;;15.18;6.47;;;2.10;99.90;;;;;;5016271;28;20406;-68
2023/01/20 11:28:48;;;;;;;21.42;10.27;;;1.70;99.90;;;;;;5016776;28;20053;-68
2023/01/20 11:31:14;;;;;;;15.27;6.32;;;2.50;99.90;;;;;;5015967;28;20484;-68
2023/01/20 11:33:52;;;;;;;15.60;7.95;;;2.00;99.90;;;;;;5016668;28;20064;-69
2023/01/20 11:36:18;;;;;;;15.32;7.18;;;2.00;99.90;;;;;;5018471;28;20077;-68
2023/01/20 11:38:47;;;;;;;18.23;7.95;;;2.60;99.90;;;;;;5018359;28;20054;-68
2023/01/20 11:41:22;;;;;;;16.67;7.63;;;2.10;99.90;;;;;;5015580;28;20500;-68
2023/01/20 11:43:54;;;;;;;15.48;7.50;;;2.00;99.90;;;;;;5015738;28;20046;-68
2023/01/20 11:46:29;;;;;;;14.40;6.78;;;2.30;99.90;;;;;;5016292;28;20529;-68
2023/01/20 11:49:21;;;;;;;14.02;6.68;;;2.20;99.90;;;;;;5015625;28;20100;-68
2023/01/20 11:51:53;;;;;;;15.50;7.47;;;2.20;99.90;;;;;;5014629;28;20053;-68
2023/01/20 11:54:29;;;;;;;15.00;6.13;;;2.20;99.90;;;;;;5016073;28;20053;-68
2023/01/20 11:57:06;;;;;;;16.40;7.25;;;2.80;99.90;;;;;;5014568;28;20053;-68
2023/01/20 11:59:34;;;;;;;13.45;6.38;;;2.90;99.90;;;;;;5015380;28;20042;-72
2023/01/20 12:02:06;;;;;;;16.02;7.13;;;2.90;99.90;;;;;;5015316;28;20057;-68
2023/01/20 12:04:41;;;;;;;17.77;7.38;;;2.30;99.90;;;;;;5014072;28;20046;-68
2023/01/20 12:07:42;;;;;;;16.65;7.03;;;2.30;99.90;;;;;;5015093;28;20128;-68
2023/01/20 12:10:24;;;;;;;14.95;7.20;;;2.10;99.90;;;;;;4954814;28;20059;-68
2023/01/20 12:13:02;;;;;;;18.05;6.35;;;2.10;99.90;;;;;;5009932;28;20546;-68
2023/01/20 12:15:40;;;;;;;13.23;6.78;;;2.40;99.90;;;;;;5015099;28;20042;-68
2023/01/20 12:18:16;;;;;;;12.93;6.45;;;3.00;99.90;;;;;;5014987;28;20377;-68
2023/01/20 12:20:49;;;;;;;17.45;6.65;;;2.60;99.90;;;;;;5015446;28;20053;-68
2023/01/20 12:23:46;;;;;;;10.70;10.32;;;2.20;99.90;;;;;;5015092;28;20450;-68
2023/01/20 12:26:14;;;;;;;6.10;6.00;;;2.10;99.90;;;;;;5014531;28;20073;-68
2023/01/20 12:29:03;;;;;;;6.13;6.03;;;2.10;99.90;;;;;;5015483;28;20459;-68
2023/01/20 12:31:30;;;;;;;6.10;6.00;;;2.10;99.90;;;;;;5015155;28;20049;-68
2023/01/20 12:34:01;;;;;;;14.63;14.30;;;3.10;99.90;;;;;;5014757;28;20054;-68
2023/01/20 12:36:48;;;;;;;9.18;8.98;;;2.90;99.90;;;;;;5013672;28;20077;-68
2023/01/20 12:39:17;;;;;;;9.63;9.43;;;2.40;99.90;;;;;;5014848;28;20144;-68
2023/01/20 12:42:29;;;;;;;8.88;8.68;;;2.20;99.90;;;;;;5014401;28;20184;-68
2023/01/20 12:45:29;;;;;;;9.75;9.55;;;2.10;99.90;;;;;;4954446;29;20506;-68
2023/01/20 12:48:19;;;;;;;10.15;9.95;;;2.10;99.90;;;;;;5015151;28;20046;-68
2023/01/20 12:50:53;;;;;;;4.72;4.63;;;2.20;99.90;;;;;;5014601;28;20488;-68
2023/01/20 12:54:00;;;;;;;5.05;4.85;;;2.20;99.90;;;;;;5013534;28;20095;-68
2023/01/20 12:56:34;;;;;;;4.30;4.20;;;2.40;99.90;;;;;;4991473;28;20435;-68
2023/01/20 12:59:25;;;;;;;4.75;4.65;;;2.60;99.90;;;;;;5014336;28;20468;-67
2023/01/20 13:02:11;;;;;;;4.55;4.45;;;2.20;99.90;;;;;;5014174;28;20081;-68
2023/01/20 13:04:55;;;;;;;4.80;4.60;;;2.20;99.90;;;;;;5014304;28;20046;-67
2023/01/20 13:07:40;;;;;;;4.60;4.50;;;2.20;99.90;;;;;;5014295;28;20046;-67
2023/01/20 13:10:28;;;;;;;4.75;4.65;;;2.30;99.90;;;;;;5014337;28;20046;-68
2023/01/20 13:13:03;;;;;;;4.93;4.82;;;2.20;99.90;;;;;;5014547;28;20072;-68
2023/01/20 13:15:35;;;;;;;5.10;5.00;;;2.40;99.90;;;;;;5014707;28;20057;-68
2023/01/20 13:18:26;;;;;;;5.80;5.60;;;2.20;99.90;;;;;;5014178;28;20045;-68
2023/01/20 13:20:54;;;;;;;4.60;4.50;;;2.30;99.90;;;;;;5014053;28;20050;-68
2023/01/20 13:23:27;;;;;;;5.15;4.97;;;2.30;99.90;;;;;;5014323;28;20510;-68